createdAt,value
2022-12-03T00:02:24.948Z,3.90
2022-12-03T00:04:54.742Z,3.90
2022-12-03T00:07:23.157Z,3.90
2022-12-03T00:09:51.715Z,3.90
2022-12-03T00:12:22.866Z,3.90
2022-12-03T00:14:52.548Z,4.00
2022-12-03T00:17:21.208Z,3.90
2022-12-03T00:19:51.946Z,3.90
2022-12-03T00:22:21.292Z,3.90
2022-12-03T00:24:52.747Z,4.00
2022-12-03T00:27:44.454Z,4.00
2022-12-03T00:30:14.753Z,4.00
2022-12-03T00:33:03.454Z,4.00
2022-12-03T00:35:32.218Z,4.00
2022-12-03T00:38:02.492Z,4.00
2022-12-03T00:40:30.509Z,4.00
2022-12-03T00:43:00.272Z,4.00
2022-12-03T00:45:28.765Z,4.00
2022-12-03T00:47:58.504Z,4.00
2022-12-03T00:50:26.488Z,3.90
2022-12-03T00:52:54.402Z,4.00
2022-12-03T00:55:25.001Z,4.00
2022-12-03T00:57:53.481Z,3.90
2022-12-03T01:00:27.728Z,4.00
2022-12-03T01:03:03.389Z,3.90
2022-12-03T01:05:51.820Z,4.00
2022-12-03T01:08:45.368Z,4.00
2022-12-03T01:11:41.592Z,3.90
2022-12-03T01:14:11.849Z,4.00
2022-12-03T01:16:50.564Z,4.00
2022-12-03T01:19:48.428Z,3.90
2022-12-03T01:22:41.568Z,4.00
2022-12-03T01:25:11.252Z,3.90
2022-12-03T01:27:45.524Z,4.00
2022-12-03T01:30:15.375Z,3.90
2022-12-03T01:32:44.014Z,3.90
2022-12-03T01:35:15.353Z,4.00
2022-12-03T01:37:43.924Z,4.00
2022-12-03T01:40:14.805Z,3.90
2022-12-03T01:43:06.909Z,4.00
2022-12-03T01:45:34.951Z,3.90
2022-12-03T01:48:04.976Z,3.90
2022-12-03T01:50:57.363Z,4.00
2022-12-03T01:53:25.867Z,4.00
2022-12-03T01:56:14.349Z,4.00
2022-12-03T01:58:49.332Z,4.00
2022-12-03T02:01:39.889Z,4.00
2022-12-03T02:04:14.304Z,3.90
2022-12-03T02:06:43.560Z,3.90
2022-12-03T02:09:12.785Z,3.90
2022-12-03T02:11:45.973Z,3.90
2022-12-03T02:14:21.618Z,3.90
2022-12-03T02:16:49.975Z,4.00
2022-12-03T02:19:23.761Z,3.90
2022-12-03T02:21:59.012Z,3.90
2022-12-03T02:24:37.435Z,3.90
2022-12-03T02:27:28.550Z,3.90
2022-12-03T02:29:57.072Z,4.00
2022-12-03T02:32:26.335Z,3.90
2022-12-03T02:34:55.480Z,4.00
2022-12-03T02:37:31.112Z,4.00
2022-12-03T02:40:23.084Z,4.00
2022-12-03T02:42:58.000Z,3.90
2022-12-03T02:45:28.665Z,3.90
2022-12-03T02:48:25.050Z,4.00
2022-12-03T02:51:14.029Z,4.00
2022-12-03T02:53:45.899Z,3.90
2022-12-03T02:56:17.562Z,4.00
2022-12-03T02:59:13.267Z,4.00
2022-12-03T03:01:42.125Z,4.00
2022-12-03T03:04:11.425Z,4.00
2022-12-03T03:06:42.396Z,4.00
2022-12-03T03:09:11.139Z,3.90
2022-12-03T03:11:39.345Z,4.00
2022-12-03T03:14:10.819Z,4.00
2022-12-03T03:16:59.439Z,4.10
2022-12-03T03:19:30.636Z,4.00
2022-12-03T03:22:03.044Z,4.00
2022-12-03T03:24:32.390Z,4.00
2022-12-03T03:27:03.616Z,4.00
2022-12-03T03:29:46.671Z,3.90
2022-12-03T03:32:14.935Z,4.00
2022-12-03T03:35:05.657Z,4.00
2022-12-03T03:37:36.308Z,3.90
2022-12-03T03:40:05.115Z,4.00
2022-12-03T03:42:35.226Z,4.00
2022-12-03T03:45:14.688Z,4.00
2022-12-03T03:47:48.634Z,4.00
2022-12-03T03:50:19.279Z,4.00
2022-12-03T03:52:49.857Z,4.00
2022-12-03T03:55:19.156Z,4.00
2022-12-03T03:57:55.661Z,4.10
2022-12-03T04:00:36.320Z,4.10
2022-12-03T04:03:27.600Z,4.10
2022-12-03T04:05:58.644Z,4.10
2022-12-03T04:08:46.989Z,4.10
2022-12-03T04:11:35.903Z,4.10
2022-12-03T04:14:33.559Z,4.10
2022-12-03T04:17:04.132Z,4.10
2022-12-03T04:19:36.739Z,4.10
2022-12-03T04:22:24.178Z,4.20
2022-12-03T04:25:17.266Z,4.20
2022-12-03T04:28:03.475Z,4.20
2022-12-03T04:34:15.273Z,4.20
2022-12-03T04:37:06.560Z,4.20
2022-12-03T04:39:37.386Z,4.20
2022-12-03T04:42:13.624Z,4.20
2022-12-03T04:45:01.941Z,4.20
2022-12-03T04:47:51.274Z,4.20
2022-12-03T04:50:41.479Z,4.20
2022-12-03T04:53:13.113Z,4.30
2022-12-03T04:56:04.593Z,4.30
2022-12-03T04:58:35.926Z,4.30
2022-12-03T05:01:04.152Z,4.30
2022-12-03T05:03:54.298Z,4.30
2022-12-03T05:06:25.003Z,4.30
2022-12-03T05:08:56.573Z,4.30
2022-12-03T05:11:24.872Z,4.30
2022-12-03T05:13:53.962Z,4.30
2022-12-03T05:16:23.498Z,4.30
2022-12-03T05:18:53.392Z,4.40
2022-12-03T05:21:23.565Z,4.40
2022-12-03T05:23:56.855Z,4.40
2022-12-03T05:26:45.022Z,4.40
2022-12-03T05:29:13.038Z,4.40
2022-12-03T05:31:41.160Z,4.40
2022-12-03T05:34:09.112Z,4.40
2022-12-03T05:36:36.999Z,4.30
2022-12-03T05:39:06.517Z,4.30
2022-12-03T05:41:52.314Z,4.30
2022-12-03T05:44:20.835Z,4.40
2022-12-03T05:46:49.042Z,4.50
2022-12-03T05:49:16.949Z,4.40
2022-12-03T05:51:44.885Z,4.40
2022-12-03T05:54:14.187Z,4.40
2022-12-03T05:56:42.235Z,4.40
2022-12-03T05:59:10.171Z,4.40
2022-12-03T06:01:38.159Z,4.40
2022-12-03T06:04:06.460Z,4.40
2022-12-03T06:06:34.486Z,4.40
2022-12-03T06:09:02.453Z,4.40
2022-12-03T06:11:34.150Z,4.40
2022-12-03T06:14:02.127Z,4.40
2022-12-03T06:16:30.276Z,4.30
2022-12-03T06:18:58.317Z,4.30
2022-12-03T06:21:26.276Z,4.30
2022-12-03T06:23:57.049Z,4.30
2022-12-03T06:26:24.983Z,4.30
2022-12-03T06:28:54.325Z,4.30
2022-12-03T06:31:23.145Z,4.30
2022-12-03T06:33:51.254Z,4.40
2022-12-03T06:36:22.956Z,4.30
2022-12-03T06:38:51.540Z,4.40
2022-12-03T06:41:19.475Z,4.30
2022-12-03T06:43:47.982Z,4.30
2022-12-03T06:46:17.410Z,4.30
2022-12-03T06:48:45.425Z,4.30
2022-12-03T06:51:13.416Z,4.30
2022-12-03T06:53:41.460Z,4.30
2022-12-03T06:56:09.945Z,4.30
2022-12-03T06:58:37.992Z,4.30
2022-12-03T07:01:06.083Z,4.30
2022-12-03T07:03:35.465Z,4.30
2022-12-03T07:06:03.486Z,4.30
2022-12-03T07:08:31.438Z,4.40
2022-12-03T07:10:59.344Z,4.40
2022-12-03T07:13:27.604Z,4.30
2022-12-03T07:15:55.590Z,4.30
2022-12-03T07:18:23.611Z,4.30
2022-12-03T07:20:55.096Z,4.40
2022-12-03T07:23:23.105Z,4.40
2022-12-03T07:25:51.011Z,4.40
2022-12-03T07:28:19.183Z,4.30
2022-12-03T07:30:47.152Z,4.40
2022-12-03T07:33:15.125Z,4.40
2022-12-03T07:35:44.614Z,4.40
2022-12-03T07:38:13.956Z,4.40
2022-12-03T07:40:42.193Z,4.40
2022-12-03T07:43:10.721Z,4.40
2022-12-03T07:45:38.685Z,4.30
2022-12-03T07:48:07.254Z,4.30
2022-12-03T07:50:35.207Z,4.40
2022-12-03T07:53:03.182Z,4.40
2022-12-03T07:55:32.568Z,4.40
2022-12-03T07:58:00.656Z,4.40
2022-12-03T08:00:28.752Z,4.40
2022-12-03T08:02:56.822Z,4.40
2022-12-03T08:05:25.106Z,4.40
2022-12-03T08:07:53.274Z,4.40
2022-12-03T08:10:21.310Z,4.40
2022-12-03T08:12:50.587Z,4.40
2022-12-03T08:15:21.887Z,4.40
2022-12-03T08:17:56.697Z,4.40
2022-12-03T08:20:27.068Z,4.50
2022-12-03T08:22:55.675Z,4.40
2022-12-03T08:25:25.698Z,4.50
2022-12-03T08:27:58.241Z,4.40
2022-12-03T08:30:26.322Z,4.40
2022-12-03T08:32:55.001Z,4.40
2022-12-03T08:35:25.157Z,4.40
2022-12-03T08:38:01.029Z,4.50
2022-12-03T08:40:35.657Z,4.40
2022-12-03T08:43:13.877Z,4.30
2022-12-03T08:45:43.342Z,4.30
2022-12-03T08:48:29.236Z,4.30
2022-12-03T08:51:00.849Z,4.40
2022-12-03T08:53:37.242Z,4.30
2022-12-03T08:56:14.279Z,4.40
2022-12-03T08:58:45.092Z,4.30
2022-12-03T09:01:29.977Z,4.30
2022-12-03T09:04:06.432Z,4.30
2022-12-03T09:06:34.596Z,4.30
2022-12-03T09:09:06.769Z,4.40
2022-12-03T09:11:35.118Z,4.40
2022-12-03T09:14:04.861Z,4.40
2022-12-03T09:16:33.219Z,4.40
2022-12-03T09:19:01.260Z,4.40
2022-12-03T09:21:49.322Z,4.40
2022-12-03T09:24:17.325Z,4.30
2022-12-03T09:26:45.395Z,4.40
2022-12-03T09:29:14.811Z,4.50
2022-12-03T09:31:43.263Z,4.40
2022-12-03T09:34:13.414Z,4.40
2022-12-03T09:36:41.777Z,4.40
2022-12-03T09:39:10.143Z,4.40
2022-12-03T09:41:38.303Z,4.40
2022-12-03T09:44:08.736Z,4.40
2022-12-03T09:46:44.559Z,4.40
2022-12-03T09:49:16.198Z,4.40
2022-12-03T09:51:46.207Z,4.40
2022-12-03T09:54:24.304Z,4.50
2022-12-03T09:57:07.985Z,4.50
2022-12-03T09:59:36.315Z,4.40
2022-12-03T10:02:20.057Z,4.40
2022-12-03T10:04:48.875Z,4.50
2022-12-03T10:07:17.265Z,4.50
2022-12-03T10:09:45.401Z,4.50
2022-12-03T10:12:14.979Z,4.50
2022-12-03T10:14:44.224Z,4.50
2022-12-03T10:17:15.947Z,4.50
2022-12-03T10:19:44.718Z,4.50
2022-12-03T10:22:12.646Z,4.50
2022-12-03T10:24:40.800Z,4.50
2022-12-03T10:27:22.925Z,4.50
2022-12-03T10:29:59.048Z,4.50
2022-12-03T10:32:41.584Z,4.50
2022-12-03T10:35:12.364Z,4.50
2022-12-03T10:37:58.605Z,4.50
2022-12-03T10:40:28.624Z,4.50
2022-12-03T10:43:17.604Z,4.60
2022-12-03T10:45:46.756Z,4.50
2022-12-03T10:48:18.053Z,4.60
2022-12-03T10:50:51.529Z,4.60
2022-12-03T10:53:20.963Z,4.60
2022-12-03T10:55:54.483Z,4.60
2022-12-03T10:58:25.082Z,4.60
2022-12-03T11:00:54.949Z,4.50
2022-12-03T11:03:26.348Z,4.60
2022-12-03T11:05:55.757Z,4.50
2022-12-03T11:08:25.587Z,4.60
2022-12-03T11:10:58.670Z,4.60
2022-12-03T11:13:47.721Z,4.50
2022-12-03T11:16:37.558Z,4.50
2022-12-03T11:19:16.087Z,4.50
2022-12-03T11:22:17.888Z,4.50
2022-12-03T11:24:46.028Z,4.50
2022-12-03T11:27:23.034Z,4.40
2022-12-03T11:30:00.978Z,4.40
2022-12-03T11:33:06.215Z,4.30
2022-12-03T11:35:54.361Z,4.40
2022-12-03T11:38:55.759Z,4.30
2022-12-03T11:41:32.148Z,4.30
2022-12-03T11:44:29.372Z,4.30
2022-12-03T11:47:00.043Z,4.30
2022-12-03T11:49:39.565Z,4.30
2022-12-03T11:52:28.317Z,4.30
2022-12-03T11:55:02.337Z,4.30
2022-12-03T11:57:36.663Z,4.30
2022-12-03T12:00:19.118Z,4.30
2022-12-03T12:02:47.838Z,4.20
2022-12-03T12:05:24.600Z,4.20
2022-12-03T12:07:58.198Z,4.20
2022-12-03T12:10:43.817Z,4.20
2022-12-03T12:13:55.604Z,4.30
2022-12-03T12:16:46.734Z,4.30
2022-12-03T12:19:41.491Z,4.30
2022-12-03T12:22:20.559Z,4.30
2022-12-03T12:24:52.500Z,4.30
2022-12-03T12:27:22.769Z,4.40
2022-12-03T12:29:58.736Z,4.40
2022-12-03T12:32:29.173Z,4.40
2022-12-03T12:35:01.853Z,4.40
2022-12-03T12:37:35.368Z,4.30
2022-12-03T12:40:12.810Z,4.40
2022-12-03T12:42:47.877Z,4.40
2022-12-03T12:45:18.713Z,4.30
2022-12-03T12:47:50.597Z,4.30
2022-12-03T12:50:39.747Z,4.30
2022-12-03T12:53:13.602Z,4.30
2022-12-03T12:55:43.485Z,4.30
2022-12-03T12:58:16.521Z,4.20
2022-12-03T13:00:49.836Z,4.20
2022-12-03T13:03:19.833Z,4.20
2022-12-03T13:05:50.138Z,4.20
2022-12-03T13:08:23.507Z,4.30
2022-12-03T13:10:54.756Z,4.30
2022-12-03T13:13:32.901Z,4.30
2022-12-03T13:16:07.514Z,4.20
2022-12-03T13:18:46.597Z,4.20
2022-12-03T13:21:26.769Z,4.20
2022-12-03T13:23:56.330Z,4.20
2022-12-03T13:26:36.504Z,4.20
2022-12-03T13:29:13.034Z,4.20
2022-12-03T13:31:44.144Z,4.10
2022-12-03T13:34:17.874Z,4.10
2022-12-03T13:36:55.386Z,4.10
2022-12-03T13:39:31.079Z,4.00
2022-12-03T13:42:31.607Z,4.00
2022-12-03T13:44:59.766Z,4.10
2022-12-03T13:47:44.879Z,4.10
2022-12-03T13:50:21.809Z,4.00
2022-12-03T13:52:50.150Z,4.00
2022-12-03T13:55:30.155Z,4.00
2022-12-03T13:57:59.722Z,4.00
2022-12-03T14:00:27.907Z,4.00
2022-12-03T14:02:56.137Z,3.90
2022-12-03T14:05:24.276Z,3.90
2022-12-03T14:07:52.432Z,3.90
2022-12-03T14:10:20.510Z,4.00
2022-12-03T14:12:48.688Z,3.90
2022-12-03T14:15:18.488Z,4.00
2022-12-03T14:17:46.536Z,4.00
2022-12-03T14:20:15.053Z,4.00
2022-12-03T14:22:43.228Z,4.00
2022-12-03T14:25:11.719Z,3.90
2022-12-03T14:27:40.117Z,4.00
2022-12-03T14:30:09.514Z,4.00
2022-12-03T14:32:39.250Z,4.00
2022-12-03T14:35:10.248Z,4.00
2022-12-03T14:37:38.498Z,3.90
2022-12-03T14:40:09.526Z,4.00
2022-12-03T14:42:37.770Z,4.00
2022-12-03T14:45:06.876Z,3.90
2022-12-03T14:47:35.055Z,3.90
2022-12-03T14:50:25.855Z,3.90
2022-12-03T14:52:54.061Z,3.90
2022-12-03T14:55:22.151Z,3.80
2022-12-03T14:57:50.709Z,3.90
2022-12-03T15:00:19.967Z,3.90
2022-12-03T15:02:48.369Z,3.90
2022-12-03T15:05:16.481Z,3.80
2022-12-03T15:07:46.048Z,3.80
2022-12-03T15:10:14.269Z,3.80
2022-12-03T15:12:42.457Z,3.70
2022-12-03T15:15:11.627Z,3.80
2022-12-03T15:17:39.598Z,3.70
2022-12-03T15:20:09.064Z,3.80
2022-12-03T15:22:37.070Z,3.70
2022-12-03T15:25:07.714Z,3.70
2022-12-03T15:27:35.741Z,3.60
2022-12-03T15:30:04.077Z,3.60
2022-12-03T15:32:32.102Z,3.60
2022-12-03T15:35:02.621Z,3.50
2022-12-03T15:37:30.730Z,3.50
2022-12-03T15:39:59.033Z,3.50
2022-12-03T15:42:29.693Z,3.50
2022-12-03T15:44:57.712Z,3.50
2022-12-03T15:47:27.946Z,3.40
2022-12-03T15:49:56.119Z,3.50
2022-12-03T15:52:24.553Z,3.50
2022-12-03T15:54:53.043Z,3.50
2022-12-03T15:57:21.123Z,3.30
2022-12-03T15:59:50.512Z,3.30
2022-12-03T16:02:19.491Z,3.40
2022-12-03T16:04:47.617Z,3.40
2022-12-03T16:07:15.715Z,3.50
2022-12-03T16:09:43.707Z,3.30
2022-12-03T16:12:11.621Z,3.30
2022-12-03T16:14:40.231Z,3.40
2022-12-03T16:17:09.722Z,3.40
2022-12-03T16:19:37.836Z,3.40
2022-12-03T16:22:06.157Z,3.40
2022-12-03T16:24:34.193Z,3.40
2022-12-03T16:27:02.310Z,3.40
2022-12-03T16:29:30.569Z,3.40
2022-12-03T16:31:58.779Z,3.40
2022-12-03T16:34:39.673Z,3.50
2022-12-03T16:37:08.442Z,3.40
2022-12-03T16:39:36.429Z,3.40
2022-12-03T16:42:08.006Z,3.30
2022-12-03T16:45:15.302Z,3.40
2022-12-03T16:47:43.500Z,3.40
2022-12-03T16:50:20.649Z,3.40
2022-12-03T16:52:49.997Z,3.40
2022-12-03T16:55:18.629Z,3.30
2022-12-03T16:57:46.638Z,3.40
2022-12-03T17:00:16.330Z,3.40
2022-12-03T17:02:44.951Z,3.40
2022-12-03T17:05:17.459Z,3.40
2022-12-03T17:07:45.706Z,3.40
2022-12-03T17:10:15.713Z,3.40
2022-12-03T17:13:08.278Z,3.30
2022-12-03T17:15:32.701Z,3.40
2022-12-03T17:18:03.477Z,3.40
2022-12-03T17:20:33.651Z,3.40
2022-12-03T17:23:02.189Z,3.40
2022-12-03T17:25:32.716Z,3.40
2022-12-03T17:28:00.816Z,3.40
2022-12-03T17:30:28.848Z,3.40
2022-12-03T17:32:56.983Z,3.40
2022-12-03T17:35:25.591Z,3.40
2022-12-03T17:37:55.123Z,3.40
2022-12-03T17:40:23.380Z,3.40
2022-12-03T17:42:51.731Z,3.40
2022-12-03T17:45:19.776Z,3.40
2022-12-03T17:47:49.726Z,3.40
2022-12-03T17:50:18.026Z,3.40
2022-12-03T17:52:46.182Z,3.40
2022-12-03T17:55:26.482Z,3.40
2022-12-03T17:57:59.484Z,3.30
2022-12-03T18:00:27.519Z,3.40
2022-12-03T18:02:55.928Z,3.40
2022-12-03T18:05:26.905Z,3.40
2022-12-03T18:07:55.481Z,3.40
2022-12-03T18:10:25.433Z,3.40
2022-12-03T18:12:58.340Z,3.20
2022-12-03T18:15:29.862Z,3.30
2022-12-03T18:17:57.931Z,3.30
2022-12-03T18:20:26.284Z,3.20
2022-12-03T18:22:54.831Z,3.20
2022-12-03T18:25:24.572Z,3.30
2022-12-03T18:27:52.855Z,3.20
2022-12-03T18:30:21.159Z,3.30
2022-12-03T18:32:51.017Z,3.20
2022-12-03T18:35:40.221Z,3.30
2022-12-03T18:38:12.275Z,3.30
2022-12-03T18:40:53.836Z,3.20
2022-12-03T18:43:24.701Z,3.20
2022-12-03T18:45:52.893Z,3.30
2022-12-03T18:48:22.656Z,3.20
2022-12-03T18:50:53.441Z,3.10
2022-12-03T18:53:41.801Z,3.10
2022-12-03T18:56:32.734Z,3.10
2022-12-03T18:59:03.827Z,3.10
2022-12-03T19:01:35.734Z,3.20
2022-12-03T19:04:04.488Z,3.10
2022-12-03T19:06:37.697Z,3.20
2022-12-03T19:09:07.608Z,3.10
2022-12-03T19:11:57.909Z,3.10
2022-12-03T19:14:30.655Z,3.20
2022-12-03T19:17:00.155Z,3.20
2022-12-03T19:19:29.817Z,3.20
2022-12-03T19:22:22.170Z,3.10
2022-12-03T19:24:58.888Z,3.10
2022-12-03T19:27:34.564Z,3.10
2022-12-03T19:30:25.476Z,3.10
2022-12-03T19:32:55.757Z,3.00
2022-12-03T19:35:34.045Z,3.10
2022-12-03T19:38:17.700Z,3.10
2022-12-03T19:41:12.351Z,3.10
2022-12-03T19:43:42.654Z,3.00
2022-12-03T19:46:14.465Z,3.10
2022-12-03T19:49:19.649Z,3.10
2022-12-03T19:51:51.184Z,3.10
2022-12-03T19:54:30.232Z,3.10
2022-12-03T19:57:05.162Z,3.10
2022-12-03T19:59:55.513Z,3.10
2022-12-03T20:02:27.504Z,3.10
2022-12-03T20:04:57.290Z,3.10
2022-12-03T20:07:28.268Z,3.10
2022-12-03T20:10:01.190Z,3.10
2022-12-03T20:12:31.797Z,3.10
2022-12-03T20:15:04.698Z,3.10
2022-12-03T20:17:44.095Z,3.10
2022-12-03T20:20:13.649Z,3.20
2022-12-03T20:22:42.902Z,3.20
2022-12-03T20:25:11.586Z,3.10
2022-12-03T20:28:03.083Z,3.10
2022-12-03T20:30:34.097Z,3.10
2022-12-03T20:33:02.786Z,3.10
2022-12-03T20:35:33.261Z,3.00
2022-12-03T20:38:03.029Z,3.00
2022-12-03T20:40:32.909Z,3.00
2022-12-03T20:43:01.742Z,3.00
2022-12-03T20:45:33.896Z,3.00
2022-12-03T20:48:31.659Z,3.00
2022-12-03T20:51:01.244Z,3.00
2022-12-03T20:53:30.813Z,2.90
2022-12-03T20:55:59.798Z,3.00
2022-12-03T20:58:50.175Z,3.00
2022-12-03T21:01:28.190Z,3.00
2022-12-03T21:04:20.085Z,2.90
2022-12-03T21:06:59.566Z,3.00
2022-12-03T21:09:32.079Z,3.00
2022-12-03T21:12:05.737Z,2.90
2022-12-03T21:14:41.469Z,3.00
2022-12-03T21:17:35.007Z,3.00
2022-12-03T21:22:55.836Z,3.00
2022-12-03T21:25:24.556Z,3.00
2022-12-03T21:27:55.290Z,3.00
2022-12-03T21:30:25.604Z,3.00
2022-12-03T21:33:41.111Z,3.00
2022-12-03T21:36:15.682Z,3.00
2022-12-03T21:39:10.323Z,3.00
2022-12-03T21:42:34.077Z,3.00
2022-12-03T21:44:57.098Z,3.00
2022-12-03T21:47:26.248Z,3.00
2022-12-03T21:50:10.479Z,3.00
2022-12-03T21:53:02.250Z,3.00
2022-12-03T21:55:55.389Z,3.00
2022-12-03T21:58:48.854Z,3.10
2022-12-03T22:01:44.024Z,3.10
2022-12-03T22:04:19.230Z,3.00
2022-12-03T22:06:50.846Z,3.00
2022-12-03T22:09:26.955Z,2.90
2022-12-03T22:11:57.753Z,3.00
2022-12-03T22:14:27.255Z,3.00
2022-12-03T22:16:57.871Z,3.00
2022-12-03T22:19:47.839Z,3.00
2022-12-03T22:22:43.692Z,3.00
2022-12-03T22:25:33.876Z,3.00
2022-12-03T22:28:03.167Z,3.00
2022-12-03T22:30:31.768Z,3.00
2022-12-03T22:33:04.066Z,3.00
2022-12-03T22:36:20.437Z,3.00
2022-12-03T22:39:16.712Z,3.00
2022-12-03T22:42:17.491Z,3.00
2022-12-03T22:44:45.902Z,3.00
2022-12-03T22:47:22.265Z,2.90
2022-12-03T22:49:52.736Z,2.90
2022-12-03T22:52:42.723Z,2.90
2022-12-03T22:55:56.227Z,2.80
2022-12-03T22:58:48.819Z,2.80
2022-12-03T23:01:27.338Z,2.80
2022-12-03T23:04:24.414Z,2.80
2022-12-03T23:06:53.322Z,2.80
2022-12-03T23:09:27.888Z,2.80
2022-12-03T23:12:18.541Z,2.80
2022-12-03T23:15:09.536Z,2.70
2022-12-03T23:17:40.561Z,2.80
2022-12-03T23:20:12.815Z,2.80
2022-12-03T23:22:46.528Z,2.70
2022-12-03T23:25:22.154Z,2.70
2022-12-03T23:27:57.426Z,2.70
2022-12-03T23:30:25.793Z,2.60
2022-12-03T23:33:03.145Z,2.70
2022-12-03T23:35:34.329Z,2.60
2022-12-03T23:38:35.908Z,2.60
2022-12-03T23:41:14.460Z,2.60
2022-12-03T23:44:05.632Z,2.60
2022-12-03T23:46:54.668Z,2.60
2022-12-03T23:49:25.990Z,2.60
2022-12-03T23:51:58.823Z,2.60
2022-12-03T23:55:14.441Z,2.60
2022-12-03T23:58:07.137Z,2.60
